Decoded Metar for LELO (LOGRONO in SPAIN) (IATA:RJL) | Meteo·Mobile Aviation Weather
aviador You're here:

LELO Decoded Metar

LOGRONO in SPAIN
Report Time2020-02-18 21:30:00
UTC Time2020-02-18 21:49:51
Flight Rules vfr VFR
WindVRB at 01 kt
Visibility9999 m
Phenomena:N/A
Clouds:N/A
Expected CloudBase > 1,200 ft AGL from Temp-Dew spread
CeilingNone
Temp04°C (ISA -9)
Dew Point01°C (81% RH)
AAT1.8°C
QNH1035 hPa
Density Alt-499 ft
Elevation1,191 ft
Report Wrong Elevation
Raw Report
METAR LELO 182130Z AUTO VRB01KT CAVOK 04/01 Q1035=

Extra information for LELO:More info

Metar Taf Metar & Taf Last 4 Metars F.Rules Stats Wind Profile Meteogram Temp Stats Airport Information Weather charts Add Link Nearby VenuesMetar ALERT Operation Metar Decoded Social comments